sensor_id;sensor_type;location;lat;lon;timestamp;P1;durP1;ratioP1;P2;durP2;ratioP2
26181;SDS011;13927;51.534;11.866;2023-07-29T00:00:24;1.73;;;1.60;;
26181;SDS011;13927;51.534;11.866;2023-07-29T00:02:53;1.50;;;1.40;;
26181;SDS011;13927;51.534;11.866;2023-07-29T00:05:22;2.63;;;2.00;;
26181;SDS011;13927;51.534;11.866;2023-07-29T00:07:50;2.00;;;1.80;;
26181;SDS011;13927;51.534;11.866;2023-07-29T00:10:18;1.85;;;1.65;;
26181;SDS011;13927;51.534;11.866;2023-07-29T00:12:47;1.88;;;1.48;;
26181;SDS011;13927;51.534;11.866;2023-07-29T00:15:15;2.03;;;1.70;;
26181;SDS011;13927;51.534;11.866;2023-07-29T00:17:47;1.60;;;1.50;;
26181;SDS011;13927;51.534;11.866;2023-07-29T00:20:15;2.38;;;1.45;;
26181;SDS011;13927;51.534;11.866;2023-07-29T00:22:42;2.85;;;1.52;;
26181;SDS011;13927;51.534;11.866;2023-07-29T00:25:12;1.85;;;1.63;;
26181;SDS011;13927;51.534;11.866;2023-07-29T00:27:40;1.38;;;1.27;;
26181;SDS011;13927;51.534;11.866;2023-07-29T00:30:08;1.88;;;1.70;;
26181;SDS011;13927;51.534;11.866;2023-07-29T00:32:37;2.15;;;1.63;;
26181;SDS011;13927;51.534;11.866;2023-07-29T00:35:07;1.80;;;1.70;;
26181;SDS011;13927;51.534;11.866;2023-07-29T00:37:35;2.15;;;1.90;;
26181;SDS011;13927;51.534;11.866;2023-07-29T00:40:10;2.38;;;1.70;;
26181;SDS011;13927;51.534;11.866;2023-07-29T00:42:47;2.08;;;1.77;;
26181;SDS011;13927;51.534;11.866;2023-07-29T00:45:19;3.53;;;1.65;;
26181;SDS011;13927;51.534;11.866;2023-07-29T00:47:51;2.58;;;2.00;;
26181;SDS011;13927;51.534;11.866;2023-07-29T00:50:23;1.95;;;1.60;;
26181;SDS011;13927;51.534;11.866;2023-07-29T00:52:54;4.72;;;1.70;;
26181;SDS011;13927;51.534;11.866;2023-07-29T00:55:33;3.10;;;1.63;;
26181;SDS011;13927;51.534;11.866;2023-07-29T00:57:59;2.42;;;1.63;;
26181;SDS011;13927;51.534;11.866;2023-07-29T01:00:27;3.13;;;1.80;;
26181;SDS011;13927;51.534;11.866;2023-07-29T01:02:55;3.55;;;1.80;;
26181;SDS011;13927;51.534;11.866;2023-07-29T01:05:36;2.03;;;1.77;;
26181;SDS011;13927;51.534;11.866;2023-07-29T01:08:31;4.65;;;2.10;;
26181;SDS011;13927;51.534;11.866;2023-07-29T01:12:20;2.22;;;1.90;;
26181;SDS011;13927;51.534;11.866;2023-07-29T01:17:29;1.95;;;1.75;;
26181;SDS011;13927;51.534;11.866;2023-07-29T01:20:24;2.30;;;1.80;;
26181;SDS011;13927;51.534;11.866;2023-07-29T01:22:54;2.38;;;1.80;;
26181;SDS011;13927;51.534;11.866;2023-07-29T01:25:21;2.75;;;1.70;;
26181;SDS011;13927;51.534;11.866;2023-07-29T01:27:49;2.42;;;1.60;;
26181;SDS011;13927;51.534;11.866;2023-07-29T01:30:22;2.28;;;1.60;;
26181;SDS011;13927;51.534;11.866;2023-07-29T01:35:48;2.03;;;1.83;;
26181;SDS011;13927;51.534;11.866;2023-07-29T01:42:20;2.10;;;1.58;;
26181;SDS011;13927;51.534;11.866;2023-07-29T01:44:51;2.35;;;1.85;;
26181;SDS011;13927;51.534;11.866;2023-07-29T01:47:20;2.20;;;1.98;;
26181;SDS011;13927;51.534;11.866;2023-07-29T01:49:52;2.63;;;1.90;;
26181;SDS011;13927;51.534;11.866;2023-07-29T01:52:22;2.42;;;1.90;;
26181;SDS011;13927;51.534;11.866;2023-07-29T01:54:51;2.38;;;2.17;;
26181;SDS011;13927;51.534;11.866;2023-07-29T01:57:26;2.22;;;1.95;;
26181;SDS011;13927;51.534;11.866;2023-07-29T01:59:54;2.03;;;1.83;;
26181;SDS011;13927;51.534;11.866;2023-07-29T02:02:25;2.65;;;2.03;;
26181;SDS011;13927;51.534;11.866;2023-07-29T02:04:53;3.38;;;1.80;;
26181;SDS011;13927;51.534;11.866;2023-07-29T02:07:23;3.58;;;2.28;;
26181;SDS011;13927;51.534;11.866;2023-07-29T02:09:52;2.72;;;1.80;;
26181;SDS011;13927;51.534;11.866;2023-07-29T02:12:20;2.70;;;1.90;;
26181;SDS011;13927;51.534;11.866;2023-07-29T02:14:50;2.30;;;1.83;;
26181;SDS011;13927;51.534;11.866;2023-07-29T02:17:17;2.58;;;2.05;;
26181;SDS011;13927;51.534;11.866;2023-07-29T02:19:46;2.00;;;1.80;;
26181;SDS011;13927;51.534;11.866;2023-07-29T02:22:17;4.15;;;2.00;;
26181;SDS011;13927;51.534;11.866;2023-07-29T02:24:45;4.32;;;2.40;;
26181;SDS011;13927;51.534;11.866;2023-07-29T02:27:19;2.78;;;2.40;;
26181;SDS011;13927;51.534;11.866;2023-07-29T02:29:46;2.88;;;2.17;;
26181;SDS011;13927;51.534;11.866;2023-07-29T02:32:16;2.70;;;2.10;;
26181;SDS011;13927;51.534;11.866;2023-07-29T02:34:45;3.97;;;2.22;;
26181;SDS011;13927;51.534;11.866;2023-07-29T02:37:17;3.00;;;2.20;;
26181;SDS011;13927;51.534;11.866;2023-07-29T02:39:45;3.42;;;2.05;;
26181;SDS011;13927;51.534;11.866;2023-07-29T02:42:14;3.17;;;2.45;;
26181;SDS011;13927;51.534;11.866;2023-07-29T02:44:42;4.22;;;2.63;;
26181;SDS011;13927;51.534;11.866;2023-07-29T02:47:12;3.75;;;2.13;;
26181;SDS011;13927;51.534;11.866;2023-07-29T02:49:42;2.42;;;2.00;;
26181;SDS011;13927;51.534;11.866;2023-07-29T02:52:11;3.05;;;2.15;;
26181;SDS011;13927;51.534;11.866;2023-07-29T02:54:39;3.70;;;2.30;;
26181;SDS011;13927;51.534;11.866;2023-07-29T02:57:06;2.28;;;2.00;;
26181;SDS011;13927;51.534;11.866;2023-07-29T02:59:33;2.78;;;2.15;;
26181;SDS011;13927;51.534;11.866;2023-07-29T03:02:03;1.88;;;1.73;;
26181;SDS011;13927;51.534;11.866;2023-07-29T03:04:31;2.38;;;2.00;;
26181;SDS011;13927;51.534;11.866;2023-07-29T03:06:59;2.78;;;1.90;;
26181;SDS011;13927;51.534;11.866;2023-07-29T03:09:26;2.47;;;1.98;;
26181;SDS011;13927;51.534;11.866;2023-07-29T03:11:56;3.35;;;2.55;;
26181;SDS011;13927;51.534;11.866;2023-07-29T03:14:24;2.75;;;2.47;;
26181;SDS011;13927;51.534;11.866;2023-07-29T03:16:53;3.17;;;2.60;;
26181;SDS011;13927;51.534;11.866;2023-07-29T03:19:23;2.67;;;2.47;;
26181;SDS011;13927;51.534;11.866;2023-07-29T03:21:53;3.75;;;2.40;;
26181;SDS011;13927;51.534;11.866;2023-07-29T03:24:28;3.42;;;2.50;;
26181;SDS011;13927;51.534;11.866;2023-07-29T03:26:56;3.13;;;2.42;;
26181;SDS011;13927;51.534;11.866;2023-07-29T03:29:23;2.60;;;2.40;;
26181;SDS011;13927;51.534;11.866;2023-07-29T03:31:51;4.72;;;2.67;;
26181;SDS011;13927;51.534;11.866;2023-07-29T03:34:22;6.28;;;2.35;;
26181;SDS011;13927;51.534;11.866;2023-07-29T03:36:50;2.70;;;2.50;;
26181;SDS011;13927;51.534;11.866;2023-07-29T03:39:19;4.00;;;2.40;;
26181;SDS011;13927;51.534;11.866;2023-07-29T03:41:48;3.53;;;2.33;;
26181;SDS011;13927;51.534;11.866;2023-07-29T03:44:16;2.90;;;2.50;;
26181;SDS011;13927;51.534;11.866;2023-07-29T03:46:45;2.63;;;2.40;;
26181;SDS011;13927;51.534;11.866;2023-07-29T03:49:15;4.53;;;2.75;;
26181;SDS011;13927;51.534;11.866;2023-07-29T03:51:45;3.25;;;2.30;;
26181;SDS011;13927;51.534;11.866;2023-07-29T03:54:16;4.03;;;2.35;;
26181;SDS011;13927;51.534;11.866;2023-07-29T03:56:45;2.60;;;2.40;;
26181;SDS011;13927;51.534;11.866;2023-07-29T03:59:15;4.47;;;2.30;;
26181;SDS011;13927;51.534;11.866;2023-07-29T04:01:48;3.47;;;2.50;;
26181;SDS011;13927;51.534;11.866;2023-07-29T04:04:15;2.53;;;2.22;;
26181;SDS011;13927;51.534;11.866;2023-07-29T04:06:43;3.72;;;2.20;;
26181;SDS011;13927;51.534;11.866;2023-07-29T04:09:12;2.85;;;2.30;;
26181;SDS011;13927;51.534;11.866;2023-07-29T04:11:41;3.67;;;2.17;;
26181;SDS011;13927;51.534;11.866;2023-07-29T04:14:09;2.28;;;2.08;;
26181;SDS011;13927;51.534;11.866;2023-07-29T04:16:39;2.40;;;1.98;;
26181;SDS011;13927;51.534;11.866;2023-07-29T04:19:08;2.65;;;2.08;;
26181;SDS011;13927;51.534;11.866;2023-07-29T04:21:37;3.20;;;2.20;;
26181;SDS011;13927;51.534;11.866;2023-07-29T04:24:08;2.35;;;2.05;;
26181;SDS011;13927;51.534;11.866;2023-07-29T04:26:38;2.90;;;2.53;;
26181;SDS011;13927;51.534;11.866;2023-07-29T04:29:14;2.70;;;2.17;;
26181;SDS011;13927;51.534;11.866;2023-07-29T04:32:10;2.28;;;2.08;;
26181;SDS011;13927;51.534;11.866;2023-07-29T04:34:41;2.10;;;1.88;;
26181;SDS011;13927;51.534;11.866;2023-07-29T04:37:11;3.20;;;2.08;;
26181;SDS011;13927;51.534;11.866;2023-07-29T04:39:48;2.40;;;2.20;;
26181;SDS011;13927;51.534;11.866;2023-07-29T04:42:20;1.85;;;1.73;;
26181;SDS011;13927;51.534;11.866;2023-07-29T04:44:50;2.30;;;2.00;;
26181;SDS011;13927;51.534;11.866;2023-07-29T04:47:46;2.38;;;1.98;;
26181;SDS011;13927;51.534;11.866;2023-07-29T04:50:33;2.00;;;1.80;;
26181;SDS011;13927;51.534;11.866;2023-07-29T04:53:25;2.55;;;1.98;;
26181;SDS011;13927;51.534;11.866;2023-07-29T04:55:57;2.13;;;1.88;;
26181;SDS011;13927;51.534;11.866;2023-07-29T04:58:28;2.15;;;1.95;;
26181;SDS011;13927;51.534;11.866;2023-07-29T05:01:01;2.97;;;2.42;;
26181;SDS011;13927;51.534;11.866;2023-07-29T05:03:31;2.97;;;2.05;;
26181;SDS011;13927;51.534;11.866;2023-07-29T05:06:02;2.72;;;1.98;;
26181;SDS011;13927;51.534;11.866;2023-07-29T05:08:39;2.22;;;2.03;;
26181;SDS011;13927;51.534;11.866;2023-07-29T05:13:42;2.13;;;1.80;;
26181;SDS011;13927;51.534;11.866;2023-07-29T05:16:31;2.47;;;1.77;;
26181;SDS011;13927;51.534;11.866;2023-07-29T05:18:57;3.63;;;1.70;;
26181;SDS011;13927;51.534;11.866;2023-07-29T05:21:29;2.90;;;2.00;;
26181;SDS011;13927;51.534;11.866;2023-07-29T05:23:59;2.10;;;1.77;;
26181;SDS011;13927;51.534;11.866;2023-07-29T05:26:29;2.75;;;1.95;;
26181;SDS011;13927;51.534;11.866;2023-07-29T05:29:03;1.80;;;1.70;;
26181;SDS011;13927;51.534;11.866;2023-07-29T05:31:33;2.17;;;1.77;;
26181;SDS011;13927;51.534;11.866;2023-07-29T05:33:59;2.67;;;1.70;;
26181;SDS011;13927;51.534;11.866;2023-07-29T05:36:25;2.15;;;1.70;;
26181;SDS011;13927;51.534;11.866;2023-07-29T05:38:51;2.83;;;1.80;;
26181;SDS011;13927;51.534;11.866;2023-07-29T05:41:18;2.30;;;1.63;;
26181;SDS011;13927;51.534;11.866;2023-07-29T05:43:44;2.40;;;1.75;;
26181;SDS011;13927;51.534;11.866;2023-07-29T05:46:12;1.98;;;1.88;;
26181;SDS011;13927;51.534;11.866;2023-07-29T05:48:38;4.50;;;1.95;;
26181;SDS011;13927;51.534;11.866;2023-07-29T05:51:05;1.98;;;1.30;;
26181;SDS011;13927;51.534;11.866;2023-07-29T05:53:31;1.75;;;1.40;;
26181;SDS011;13927;51.534;11.866;2023-07-29T05:55:58;2.08;;;1.40;;
26181;SDS011;13927;51.534;11.866;2023-07-29T05:58:24;2.10;;;1.83;;
26181;SDS011;13927;51.534;11.866;2023-07-29T06:00:50;1.63;;;1.45;;
26181;SDS011;13927;51.534;11.866;2023-07-29T06:03:16;2.45;;;1.60;;
26181;SDS011;13927;51.534;11.866;2023-07-29T06:05:42;3.38;;;1.70;;
26181;SDS011;13927;51.534;11.866;2023-07-29T06:08:08;2.30;;;1.67;;
26181;SDS011;13927;51.534;11.866;2023-07-29T06:10:35;2.75;;;1.48;;
26181;SDS011;13927;51.534;11.866;2023-07-29T06:13:01;2.25;;;2.03;;
26181;SDS011;13927;51.534;11.866;2023-07-29T06:15:27;1.40;;;1.30;;
26181;SDS011;13927;51.534;11.866;2023-07-29T06:17:54;4.20;;;1.67;;
26181;SDS011;13927;51.534;11.866;2023-07-29T06:20:20;3.00;;;1.58;;
26181;SDS011;13927;51.534;11.866;2023-07-29T06:22:46;2.67;;;1.40;;
26181;SDS011;13927;51.534;11.866;2023-07-29T06:25:13;1.42;;;1.30;;
26181;SDS011;13927;51.534;11.866;2023-07-29T06:27:39;1.63;;;1.25;;
26181;SDS011;13927;51.534;11.866;2023-07-29T06:30:05;3.22;;;1.50;;
26181;SDS011;13927;51.534;11.866;2023-07-29T06:32:33;2.00;;;1.40;;
26181;SDS011;13927;51.534;11.866;2023-07-29T06:35:00;2.72;;;1.50;;
26181;SDS011;13927;51.534;11.866;2023-07-29T06:37:26;2.10;;;1.67;;
26181;SDS011;13927;51.534;11.866;2023-07-29T06:39:52;2.85;;;1.88;;
26181;SDS011;13927;51.534;11.866;2023-07-29T06:42:18;1.50;;;1.40;;
26181;SDS011;13927;51.534;11.866;2023-07-29T06:44:44;1.80;;;1.60;;
26181;SDS011;13927;51.534;11.866;2023-07-29T06:47:11;1.92;;;1.75;;
26181;SDS011;13927;51.534;11.866;2023-07-29T06:49:37;1.80;;;1.70;;
26181;SDS011;13927;51.534;11.866;2023-07-29T06:52:04;1.42;;;1.30;;
26181;SDS011;13927;51.534;11.866;2023-07-29T06:54:30;1.58;;;1.20;;
26181;SDS011;13927;51.534;11.866;2023-07-29T06:56:57;1.42;;;1.33;;
26181;SDS011;13927;51.534;11.866;2023-07-29T06:59:23;1.88;;;1.40;;
26181;SDS011;13927;51.534;11.866;2023-07-29T07:01:52;1.63;;;1.52;;
26181;SDS011;13927;51.534;11.866;2023-07-29T07:04:18;1.45;;;1.25;;
26181;SDS011;13927;51.534;11.866;2023-07-29T07:06:43;3.53;;;1.23;;
26181;SDS011;13927;51.534;11.866;2023-07-29T07:09:09;2.85;;;1.30;;
26181;SDS011;13927;51.534;11.866;2023-07-29T07:11:35;1.35;;;1.20;;
26181;SDS011;13927;51.534;11.866;2023-07-29T07:14:01;1.30;;;1.15;;
26181;SDS011;13927;51.534;11.866;2023-07-29T07:16:26;2.08;;;1.75;;
26181;SDS011;13927;51.534;11.866;2023-07-29T07:18:55;1.30;;;1.20;;
26181;SDS011;13927;51.534;11.866;2023-07-29T07:21:21;1.83;;;1.30;;
26181;SDS011;13927;51.534;11.866;2023-07-29T07:23:49;1.42;;;1.33;;
26181;SDS011;13927;51.534;11.866;2023-07-29T07:26:15;2.17;;;1.40;;
26181;SDS011;13927;51.534;11.866;2023-07-29T07:28:41;2.47;;;1.60;;
26181;SDS011;13927;51.534;11.866;2023-07-29T07:31:07;2.22;;;1.45;;
26181;SDS011;13927;51.534;11.866;2023-07-29T07:33:33;2.05;;;1.50;;
26181;SDS011;13927;51.534;11.866;2023-07-29T07:35:59;1.70;;;1.50;;
26181;SDS011;13927;51.534;11.866;2023-07-29T07:38:25;2.40;;;1.60;;
26181;SDS011;13927;51.534;11.866;2023-07-29T07:40:55;2.17;;;1.70;;
26181;SDS011;13927;51.534;11.866;2023-07-29T07:43:22;1.90;;;1.30;;
26181;SDS011;13927;51.534;11.866;2023-07-29T07:45:49;2.35;;;1.73;;
26181;SDS011;13927;51.534;11.866;2023-07-29T07:48:16;3.17;;;1.60;;
26181;SDS011;13927;51.534;11.866;2023-07-29T07:50:42;5.85;;;1.70;;
26181;SDS011;13927;51.534;11.866;2023-07-29T07:53:09;2.42;;;1.60;;
26181;SDS011;13927;51.534;11.866;2023-07-29T07:55:35;2.55;;;1.58;;
26181;SDS011;13927;51.534;11.866;2023-07-29T07:58:01;2.90;;;1.45;;
26181;SDS011;13927;51.534;11.866;2023-07-29T08:00:27;2.83;;;1.67;;
26181;SDS011;13927;51.534;11.866;2023-07-29T08:02:54;2.00;;;1.40;;
26181;SDS011;13927;51.534;11.866;2023-07-29T08:05:20;2.10;;;1.60;;
26181;SDS011;13927;51.534;11.866;2023-07-29T08:07:46;3.00;;;1.50;;
26181;SDS011;13927;51.534;11.866;2023-07-29T08:10:12;2.35;;;1.45;;
26181;SDS011;13927;51.534;11.866;2023-07-29T08:12:39;2.03;;;1.20;;
26181;SDS011;13927;51.534;11.866;2023-07-29T08:15:06;2.13;;;1.13;;
26181;SDS011;13927;51.534;11.866;2023-07-29T08:17:33;2.50;;;1.38;;
26181;SDS011;13927;51.534;11.866;2023-07-29T08:19:58;2.03;;;1.63;;
26181;SDS011;13927;51.534;11.866;2023-07-29T08:22:24;1.92;;;1.38;;
26181;SDS011;13927;51.534;11.866;2023-07-29T08:24:50;2.17;;;1.17;;
26181;SDS011;13927;51.534;11.866;2023-07-29T08:27:17;1.23;;;1.10;;
26181;SDS011;13927;51.534;11.866;2023-07-29T08:29:43;1.40;;;1.10;;
26181;SDS011;13927;51.534;11.866;2023-07-29T08:32:09;1.00;;;0.90;;
26181;SDS011;13927;51.534;11.866;2023-07-29T08:34:35;1.42;;;1.23;;
26181;SDS011;13927;51.534;11.866;2023-07-29T08:37:01;1.20;;;1.02;;
26181;SDS011;13927;51.534;11.866;2023-07-29T08:39:27;1.13;;;1.00;;
26181;SDS011;13927;51.534;11.866;2023-07-29T08:41:56;1.30;;;1.10;;
26181;SDS011;13927;51.534;11.866;2023-07-29T08:44:36;0.95;;;0.90;;
26181;SDS011;13927;51.534;11.866;2023-07-29T08:47:07;2.10;;;1.20;;
26181;SDS011;13927;51.534;11.866;2023-07-29T08:49:33;2.05;;;1.33;;
26181;SDS011;13927;51.534;11.866;2023-07-29T08:52:01;1.08;;;0.98;;
26181;SDS011;13927;51.534;11.866;2023-07-29T08:54:27;1.42;;;1.20;;
26181;SDS011;13927;51.534;11.866;2023-07-29T08:56:54;2.47;;;1.10;;
26181;SDS011;13927;51.534;11.866;2023-07-29T08:59:20;0.70;;;0.70;;
26181;SDS011;13927;51.534;11.866;2023-07-29T09:01:47;1.15;;;0.95;;
26181;SDS011;13927;51.534;11.866;2023-07-29T09:04:13;1.60;;;1.25;;
26181;SDS011;13927;51.534;11.866;2023-07-29T09:06:39;1.10;;;1.00;;
26181;SDS011;13927;51.534;11.866;2023-07-29T09:09:08;0.90;;;0.80;;
26181;SDS011;13927;51.534;11.866;2023-07-29T09:11:34;0.95;;;0.80;;
26181;SDS011;13927;51.534;11.866;2023-07-29T09:14:01;1.48;;;0.77;;
26181;SDS011;13927;51.534;11.866;2023-07-29T09:16:28;1.48;;;1.08;;
26181;SDS011;13927;51.534;11.866;2023-07-29T09:18:55;1.98;;;0.93;;
26181;SDS011;13927;51.534;11.866;2023-07-29T09:21:28;3.22;;;0.90;;
26181;SDS011;13927;51.534;11.866;2023-07-29T09:23:55;1.27;;;0.85;;
26181;SDS011;13927;51.534;11.866;2023-07-29T09:26:25;1.40;;;0.90;;
26181;SDS011;13927;51.534;11.866;2023-07-29T09:28:54;1.10;;;0.90;;
26181;SDS011;13927;51.534;11.866;2023-07-29T09:31:22;0.90;;;0.82;;
26181;SDS011;13927;51.534;11.866;2023-07-29T09:33:57;2.08;;;0.93;;
26181;SDS011;13927;51.534;11.866;2023-07-29T09:36:26;1.67;;;1.10;;
26181;SDS011;13927;51.534;11.866;2023-07-29T09:38:55;2.85;;;0.88;;
26181;SDS011;13927;51.534;11.866;2023-07-29T09:41:24;1.20;;;1.10;;
26181;SDS011;13927;51.534;11.866;2023-07-29T09:43:58;3.25;;;1.50;;
26181;SDS011;13927;51.534;11.866;2023-07-29T09:46:33;1.20;;;1.10;;
26181;SDS011;13927;51.534;11.866;2023-07-29T09:49:03;1.27;;;1.10;;
26181;SDS011;13927;51.534;11.866;2023-07-29T09:51:31;1.25;;;1.08;;
26181;SDS011;13927;51.534;11.866;2023-07-29T09:53:57;1.13;;;1.02;;
26181;SDS011;13927;51.534;11.866;2023-07-29T09:56:28;1.50;;;1.00;;
26181;SDS011;13927;51.534;11.866;2023-07-29T09:58:57;1.45;;;1.17;;
26181;SDS011;13927;51.534;11.866;2023-07-29T10:01:24;1.20;;;1.10;;
26181;SDS011;13927;51.534;11.866;2023-07-29T10:03:50;1.27;;;1.00;;
26181;SDS011;13927;51.534;11.866;2023-07-29T10:06:17;1.67;;;1.10;;
26181;SDS011;13927;51.534;11.866;2023-07-29T10:08:43;1.67;;;1.58;;
26181;SDS011;13927;51.534;11.866;2023-07-29T10:11:10;1.38;;;1.13;;
26181;SDS011;13927;51.534;11.866;2023-07-29T10:13:37;1.50;;;1.30;;
26181;SDS011;13927;51.534;11.866;2023-07-29T10:16:04;1.20;;;1.10;;
26181;SDS011;13927;51.534;11.866;2023-07-29T10:18:31;2.65;;;1.42;;
26181;SDS011;13927;51.534;11.866;2023-07-29T10:20:59;1.65;;;1.02;;
26181;SDS011;13927;51.534;11.866;2023-07-29T10:23:27;1.40;;;1.30;;
26181;SDS011;13927;51.534;11.866;2023-07-29T10:26:10;1.80;;;1.33;;
26181;SDS011;13927;51.534;11.866;2023-07-29T10:28:39;3.05;;;1.20;;
26181;SDS011;13927;51.534;11.866;2023-07-29T10:31:07;1.20;;;1.10;;
26181;SDS011;13927;51.534;11.866;2023-07-29T10:33:33;2.25;;;1.25;;
26181;SDS011;13927;51.534;11.866;2023-07-29T10:36:00;1.25;;;1.10;;
26181;SDS011;13927;51.534;11.866;2023-07-29T10:38:27;2.33;;;1.63;;
26181;SDS011;13927;51.534;11.866;2023-07-29T10:40:55;1.58;;;1.17;;
26181;SDS011;13927;51.534;11.866;2023-07-29T10:43:33;3.28;;;1.35;;
26181;SDS011;13927;51.534;11.866;2023-07-29T10:46:18;1.40;;;1.23;;
26181;SDS011;13927;51.534;11.866;2023-07-29T10:48:54;1.85;;;1.40;;
26181;SDS011;13927;51.534;11.866;2023-07-29T10:51:36;1.30;;;1.17;;
26181;SDS011;13927;51.534;11.866;2023-07-29T10:54:10;1.33;;;1.23;;
26181;SDS011;13927;51.534;11.866;2023-07-29T10:56:41;3.25;;;1.40;;
26181;SDS011;13927;51.534;11.866;2023-07-29T11:01:44;1.50;;;1.40;;
26181;SDS011;13927;51.534;11.866;2023-07-29T11:04:23;1.40;;;1.30;;
26181;SDS011;13927;51.534;11.866;2023-07-29T11:20:27;1.40;;;1.30;;
26181;SDS011;13927;51.534;11.866;2023-07-29T11:22:56;1.73;;;1.25;;
26181;SDS011;13927;51.534;11.866;2023-07-29T11:25:28;2.15;;;1.40;;
26181;SDS011;13927;51.534;11.866;2023-07-29T11:27:56;1.98;;;1.27;;
26181;SDS011;13927;51.534;11.866;2023-07-29T11:30:24;1.75;;;1.40;;
26181;SDS011;13927;51.534;11.866;2023-07-29T11:32:53;4.65;;;1.58;;
26181;SDS011;13927;51.534;11.866;2023-07-29T11:35:22;2.00;;;1.40;;
26181;SDS011;13927;51.534;11.866;2023-07-29T11:37:50;1.52;;;1.42;;
26181;SDS011;13927;51.534;11.866;2023-07-29T11:40:18;3.58;;;1.40;;
26181;SDS011;13927;51.534;11.866;2023-07-29T11:42:47;2.70;;;1.50;;
26181;SDS011;13927;51.534;11.866;2023-07-29T11:45:18;2.42;;;1.60;;
26181;SDS011;13927;51.534;11.866;2023-07-29T11:47:46;2.63;;;1.60;;
26181;SDS011;13927;51.534;11.866;2023-07-29T11:50:13;1.75;;;1.45;;
26181;SDS011;13927;51.534;11.866;2023-07-29T11:52:41;2.00;;;1.20;;
26181;SDS011;13927;51.534;11.866;2023-07-29T11:55:10;2.33;;;1.60;;
26181;SDS011;13927;51.534;11.866;2023-07-29T11:57:38;2.03;;;1.50;;
26181;SDS011;13927;51.534;11.866;2023-07-29T12:00:06;1.75;;;1.30;;
26181;SDS011;13927;51.534;11.866;2023-07-29T12:02:44;1.58;;;1.30;;
26181;SDS011;13927;51.534;11.866;2023-07-29T12:05:12;3.08;;;2.05;;
26181;SDS011;13927;51.534;11.866;2023-07-29T12:07:41;1.55;;;1.45;;
26181;SDS011;13927;51.534;11.866;2023-07-29T12:10:09;1.80;;;1.45;;
26181;SDS011;13927;51.534;11.866;2023-07-29T12:12:48;2.45;;;1.70;;
26181;SDS011;13927;51.534;11.866;2023-07-29T12:15:22;4.32;;;1.90;;
26181;SDS011;13927;51.534;11.866;2023-07-29T12:17:57;2.10;;;1.52;;
26181;SDS011;13927;51.534;11.866;2023-07-29T12:20:25;3.10;;;1.48;;
26181;SDS011;13927;51.534;11.866;2023-07-29T12:22:53;2.70;;;1.40;;
26181;SDS011;13927;51.534;11.866;2023-07-29T12:25:26;2.13;;;1.65;;
26181;SDS011;13927;51.534;11.866;2023-07-29T12:27:54;2.58;;;1.50;;
26181;SDS011;13927;51.534;11.866;2023-07-29T12:32:53;2.63;;;1.38;;
26181;SDS011;13927;51.534;11.866;2023-07-29T12:35:19;2.78;;;1.50;;
26181;SDS011;13927;51.534;11.866;2023-07-29T12:37:46;2.47;;;1.50;;
26181;SDS011;13927;51.534;11.866;2023-07-29T12:40:22;1.75;;;1.40;;
26181;SDS011;13927;51.534;11.866;2023-07-29T12:42:50;1.75;;;1.35;;
26181;SDS011;13927;51.534;11.866;2023-07-29T12:45:18;3.40;;;1.70;;
26181;SDS011;13927;51.534;11.866;2023-07-29T12:47:48;2.88;;;1.50;;
26181;SDS011;13927;51.534;11.866;2023-07-29T12:50:16;2.00;;;1.30;;
26181;SDS011;13927;51.534;11.866;2023-07-29T12:52:43;1.60;;;1.50;;
26181;SDS011;13927;51.534;11.866;2023-07-29T12:55:09;1.83;;;1.52;;
26181;SDS011;13927;51.534;11.866;2023-07-29T12:57:40;2.25;;;1.30;;
26181;SDS011;13927;51.534;11.866;2023-07-29T13:00:09;1.77;;;1.30;;
26181;SDS011;13927;51.534;11.866;2023-07-29T13:02:38;1.77;;;1.40;;
26181;SDS011;13927;51.534;11.866;2023-07-29T13:05:08;1.50;;;1.40;;
26181;SDS011;13927;51.534;11.866;2023-07-29T13:07:41;2.13;;;1.23;;
26181;SDS011;13927;51.534;11.866;2023-07-29T13:10:09;2.55;;;1.50;;
26181;SDS011;13927;51.534;11.866;2023-07-29T13:12:38;2.65;;;1.60;;
26181;SDS011;13927;51.534;11.866;2023-07-29T13:15:08;2.00;;;1.50;;
26181;SDS011;13927;51.534;11.866;2023-07-29T13:17:36;1.92;;;1.58;;
26181;SDS011;13927;51.534;11.866;2023-07-29T13:20:05;1.65;;;1.45;;
26181;SDS011;13927;51.534;11.866;2023-07-29T13:22:33;2.90;;;1.50;;
26181;SDS011;13927;51.534;11.866;2023-07-29T13:24:59;2.10;;;1.55;;
26181;SDS011;13927;51.534;11.866;2023-07-29T13:27:26;2.22;;;1.52;;
26181;SDS011;13927;51.534;11.866;2023-07-29T13:29:55;2.10;;;1.85;;
26181;SDS011;13927;51.534;11.866;2023-07-29T13:32:22;3.13;;;1.45;;
26181;SDS011;13927;51.534;11.866;2023-07-29T13:34:48;2.80;;;1.50;;
26181;SDS011;13927;51.534;11.866;2023-07-29T13:37:15;1.75;;;1.38;;
26181;SDS011;13927;51.534;11.866;2023-07-29T13:39:42;2.45;;;2.03;;
26181;SDS011;13927;51.534;11.866;2023-07-29T13:42:10;2.03;;;1.60;;
26181;SDS011;13927;51.534;11.866;2023-07-29T13:44:36;1.67;;;1.38;;
26181;SDS011;13927;51.534;11.866;2023-07-29T13:47:02;2.63;;;1.38;;
26181;SDS011;13927;51.534;11.866;2023-07-29T13:49:28;1.85;;;1.60;;
26181;SDS011;13927;51.534;11.866;2023-07-29T13:51:56;1.67;;;1.40;;
26181;SDS011;13927;51.534;11.866;2023-07-29T13:54:22;2.08;;;1.85;;
26181;SDS011;13927;51.534;11.866;2023-07-29T13:56:49;1.92;;;1.33;;
26181;SDS011;13927;51.534;11.866;2023-07-29T13:59:15;2.65;;;1.75;;
26181;SDS011;13927;51.534;11.866;2023-07-29T14:01:41;1.88;;;1.58;;
26181;SDS011;13927;51.534;11.866;2023-07-29T14:04:07;1.63;;;1.52;;
26181;SDS011;13927;51.534;11.866;2023-07-29T14:06:33;2.42;;;1.90;;
26181;SDS011;13927;51.534;11.866;2023-07-29T14:08:58;3.38;;;2.00;;
26181;SDS011;13927;51.534;11.866;2023-07-29T14:11:24;2.22;;;1.70;;
26181;SDS011;13927;51.534;11.866;2023-07-29T14:13:50;4.00;;;2.20;;
26181;SDS011;13927;51.534;11.866;2023-07-29T14:16:16;3.92;;;2.38;;
26181;SDS011;13927;51.534;11.866;2023-07-29T14:18:42;3.05;;;2.40;;
26181;SDS011;13927;51.534;11.866;2023-07-29T14:21:08;2.90;;;1.90;;
26181;SDS011;13927;51.534;11.866;2023-07-29T14:23:33;1.80;;;1.58;;
26181;SDS011;13927;51.534;11.866;2023-07-29T14:25:59;4.72;;;2.58;;
26181;SDS011;13927;51.534;11.866;2023-07-29T14:28:25;8.70;;;3.25;;
26181;SDS011;13927;51.534;11.866;2023-07-29T14:30:51;6.25;;;3.00;;
26181;SDS011;13927;51.534;11.866;2023-07-29T14:33:17;8.40;;;3.05;;
26181;SDS011;13927;51.534;11.866;2023-07-29T14:35:43;8.48;;;3.47;;
26181;SDS011;13927;51.534;11.866;2023-07-29T14:38:08;7.88;;;3.40;;
26181;SDS011;13927;51.534;11.866;2023-07-29T14:40:34;6.65;;;3.30;;
26181;SDS011;13927;51.534;11.866;2023-07-29T14:43:00;7.43;;;2.88;;
26181;SDS011;13927;51.534;11.866;2023-07-29T14:45:26;4.22;;;2.97;;
26181;SDS011;13927;51.534;11.866;2023-07-29T14:47:52;4.97;;;2.42;;
26181;SDS011;13927;51.534;11.866;2023-07-29T14:50:18;3.65;;;1.92;;
26181;SDS011;13927;51.534;11.866;2023-07-29T14:52:44;2.97;;;2.25;;
26181;SDS011;13927;51.534;11.866;2023-07-29T14:55:09;2.72;;;1.95;;
26181;SDS011;13927;51.534;11.866;2023-07-29T14:57:35;3.42;;;1.90;;
26181;SDS011;13927;51.534;11.866;2023-07-29T15:00:02;5.63;;;1.90;;
26181;SDS011;13927;51.534;11.866;2023-07-29T15:02:31;1.83;;;1.38;;
26181;SDS011;13927;51.534;11.866;2023-07-29T15:04:58;2.58;;;1.77;;
26181;SDS011;13927;51.534;11.866;2023-07-29T15:07:24;6.22;;;2.00;;
26181;SDS011;13927;51.534;11.866;2023-07-29T15:09:50;3.40;;;2.00;;
26181;SDS011;13927;51.534;11.866;2023-07-29T15:12:16;3.22;;;1.90;;
26181;SDS011;13927;51.534;11.866;2023-07-29T15:14:42;3.20;;;2.00;;